Time;durP1;ratioP1;P1;durP2;ratioP2;P2;SDS_P1;SDS_P2;PMS_P1;PMS_P2;Temp;Humidity;BMP_temperature;BMP_pressure;BME280_temperature;BME280_humidity;BME280_pressure;Samples;Min_cycle;Max_cycle;Signal;HPM_P1;HPM_P2
2023/04/20 00:01:57;;;;;;;6.03;2.80;;;;;;;;;;5044589;28;20941;-69
2023/04/20 00:04:27;;;;;;;6.07;2.93;;;;;;;;;;5039310;28;20458;-70
2023/04/20 00:06:59;;;;;;;4.10;2.40;;;;;;;;;;5046420;28;20470;-69
2023/04/20 00:09:31;;;;;;;5.23;2.40;;;;;;;;;;5048768;28;20438;-70
2023/04/20 00:12:13;;;;;;;4.37;2.40;;;;;;;;;;5047100;28;20489;-71
2023/04/20 00:14:43;;;;;;;11.03;3.07;;;;;;;;;;5052534;28;20446;-70
2023/04/20 00:17:19;;;;;;;5.63;2.93;;;;;;;;;;5056864;28;20480;-70
2023/04/20 00:19:50;;;;;;;4.17;2.50;;;;;;;;;;5052278;28;20474;-69
2023/04/20 00:22:21;;;;;;;6.07;2.73;;;;;;;;;;5039871;28;20494;-69
2023/04/20 00:24:49;;;;;;;3.73;2.43;;;;;;;;;;5044396;28;20800;-70
2023/04/20 00:27:17;;;;;;;4.30;2.70;;;;;;;;;;5057395;28;20931;-70
2023/04/20 00:29:46;;;;;;;4.83;3.10;;;;;;;;;;5056881;28;20450;-70
2023/04/20 00:32:16;;;;;;;8.10;2.73;;;;;;;;;;5055135;28;20481;-70
2023/04/20 00:34:53;;;;;;;4.80;2.50;;;;;;;;;;5049725;28;20454;-70
2023/04/20 00:37:24;;;;;;;6.97;2.80;;;;;;;;;;5043114;28;20616;-70
2023/04/20 00:39:59;;;;;;;4.30;2.87;;;;;;;;;;5044897;28;20443;-69
2023/04/20 00:42:27;;;;;;;3.70;2.37;;;;;;;;;;5043307;28;20916;-69
2023/04/20 00:44:56;;;;;;;5.77;3.23;;;;;;;;;;5044637;28;20719;-70
2023/04/20 00:47:26;;;;;;;3.70;2.30;;;;;;;;;;5039802;28;20458;-69
2023/04/20 00:50:01;;;;;;;6.27;2.40;;;;;;;;;;5045714;28;20446;-71
2023/04/20 00:52:32;;;;;;;4.90;2.67;;;;;;;;;;5037135;28;20455;-69
2023/04/20 00:55:03;;;;;;;5.73;2.47;;;;;;;;;;5043891;28;20864;-69
2023/04/20 00:57:34;;;;;;;5.80;3.00;;;;;;;;;;5046136;28;20519;-70
2023/04/20 01:00:07;;;;;;;5.30;2.87;;;;;;;;;;5048404;28;20452;-69
2023/04/20 01:02:39;;;;;;;10.13;3.10;;;;;;;;;;5048327;28;20866;-70
2023/04/20 01:05:13;;;;;;;4.63;2.57;;;;;;;;;;5048190;28;20931;-69
2023/04/20 01:07:42;;;;;;;5.33;2.90;;;;;;;;;;5049414;28;20870;-69
2023/04/20 01:10:12;;;;;;;5.20;3.00;;;;;;;;;;5047297;28;20462;-70
2023/04/20 01:12:41;;;;;;;5.00;2.83;;;;;;;;;;5049816;28;20438;-70
2023/04/20 01:15:09;;;;;;;5.10;2.77;;;;;;;;;;5047732;28;20443;-70
2023/04/20 01:17:39;;;;;;;4.97;2.80;;;;;;;;;;5052286;28;20445;-69
2023/04/20 01:20:22;;;;;;;6.60;3.53;;;;;;;;;;5049986;28;20542;-69
2023/04/20 01:22:53;;;;;;;7.47;2.97;;;;;;;;;;5049675;28;20486;-70
2023/04/20 01:25:22;;;;;;;5.50;2.63;;;;;;;;;;5039777;28;20546;-70
2023/04/20 01:27:50;;;;;;;6.40;2.70;;;;;;;;;;5039747;28;20566;-71
2023/04/20 01:30:18;;;;;;;8.73;3.20;;;;;;;;;;5040960;28;20457;-70
2023/04/20 01:32:47;;;;;;;4.37;2.80;;;;;;;;;;5040956;28;20520;-70
2023/04/20 01:35:17;;;;;;;6.27;2.67;;;;;;;;;;5040735;28;20513;-70
2023/04/20 01:37:45;;;;;;;9.20;3.40;;;;;;;;;;5041772;28;20466;-70
2023/04/20 01:40:16;;;;;;;8.80;3.63;;;;;;;;;;5040532;28;20449;-70
2023/04/20 01:42:44;;;;;;;6.50;3.20;;;;;;;;;;5040301;28;20562;-69
2023/04/20 01:45:13;;;;;;;7.57;3.17;;;;;;;;;;5039744;28;20878;-69
2023/04/20 01:47:41;;;;;;;5.97;3.17;;;;;;;;;;5040754;28;20463;-69
2023/04/20 01:50:15;;;;;;;4.30;2.80;;;;;;;;;;5038480;28;20470;-70
2023/04/20 01:52:48;;;;;;;4.43;2.90;;;;;;;;;;5043488;28;20785;-69
2023/04/20 01:55:18;;;;;;;6.40;3.17;;;;;;;;;;5059353;28;20892;-69
2023/04/20 01:57:47;;;;;;;6.67;3.70;;;;;;;;;;5059505;28;20450;-70
2023/04/20 02:00:15;;;;;;;4.17;3.00;;;;;;;;;;5059423;28;20471;-70
2023/04/20 02:02:43;;;;;;;11.53;3.33;;;;;;;;;;5059495;28;20594;-70
2023/04/20 02:05:12;;;;;;;6.73;3.43;;;;;;;;;;5058853;28;20470;-70
2023/04/20 02:07:43;;;;;;;6.87;3.63;;;;;;;;;;5059185;28;20466;-70
2023/04/20 02:10:13;;;;;;;6.53;3.50;;;;;;;;;;5058612;28;20454;-70
2023/04/20 02:12:43;;;;;;;6.00;3.50;;;;;;;;;;5059874;28;20559;-71
2023/04/20 02:15:15;;;;;;;6.73;3.27;;;;;;;;;;5058498;28;20453;-70
2023/04/20 02:17:43;;;;;;;7.97;4.17;;;;;;;;;;5056734;28;20488;-69
2023/04/20 02:20:18;;;;;;;7.77;3.27;;;;;;;;;;5057538;28;20461;-71
2023/04/20 02:22:49;;;;;;;8.30;3.30;;;;;;;;;;5057926;28;20513;-69
2023/04/20 02:25:18;;;;;;;11.03;4.57;;;;;;;;;;5057186;28;20508;-70
2023/04/20 02:27:48;;;;;;;10.40;6.43;;;;;;;;;;5057003;28;20536;-70
2023/04/20 02:30:16;;;;;;;7.20;3.07;;;;;;;;;;5037805;28;20521;-68
2023/04/20 02:32:46;;;;;;;7.77;3.63;;;;;;;;;;5038361;28;20462;-69
2023/04/20 02:35:14;;;;;;;14.30;4.37;;;;;;;;;;5037528;28;20588;-69
2023/04/20 02:37:42;;;;;;;7.50;3.60;;;;;;;;;;5037208;28;20454;-69
2023/04/20 02:40:13;;;;;;;7.57;3.73;;;;;;;;;;5037096;28;20508;-69
2023/04/20 02:42:49;;;;;;;6.90;3.93;;;;;;;;;;5038651;28;20918;-71
2023/04/20 02:45:17;;;;;;;6.60;3.80;;;;;;;;;;5038155;28;20485;-69
2023/04/20 02:47:47;;;;;;;6.50;3.60;;;;;;;;;;5038960;28;20457;-69
2023/04/20 02:50:18;;;;;;;7.37;3.87;;;;;;;;;;5038717;28;20577;-70
2023/04/20 02:52:46;;;;;;;7.97;4.63;;;;;;;;;;5038407;28;20447;-69
2023/04/20 02:55:14;;;;;;;6.50;3.43;;;;;;;;;;5038158;28;20548;-70
2023/04/20 02:57:43;;;;;;;6.23;3.23;;;;;;;;;;5037488;28;20481;-70
2023/04/20 03:00:16;;;;;;;6.50;3.73;;;;;;;;;;5036898;28;20458;-69
2023/04/20 03:02:48;;;;;;;8.00;3.83;;;;;;;;;;5038494;28;20479;-69
2023/04/20 03:05:16;;;;;;;12.53;3.70;;;;;;;;;;5038370;28;20469;-70
2023/04/20 03:07:44;;;;;;;13.13;5.17;;;;;;;;;;5038044;28;20493;-71
2023/04/20 03:10:14;;;;;;;9.80;4.83;;;;;;;;;;5038123;28;20450;-71
2023/04/20 03:12:42;;;;;;;6.43;3.90;;;;;;;;;;5038613;28;20520;-70
2023/04/20 03:15:12;;;;;;;5.50;3.70;;;;;;;;;;5037757;28;20493;-70
2023/04/20 03:17:42;;;;;;;9.23;4.20;;;;;;;;;;5037324;28;20455;-69
2023/04/20 03:20:14;;;;;;;8.37;3.83;;;;;;;;;;5037143;28;20450;-71
2023/04/20 03:22:42;;;;;;;11.30;4.20;;;;;;;;;;5039014;28;20479;-70
2023/04/20 03:25:13;;;;;;;14.23;5.27;;;;;;;;;;5038831;28;20546;-71
2023/04/20 03:27:42;;;;;;;8.67;3.80;;;;;;;;;;5037405;28;20509;-72
2023/04/20 03:30:14;;;;;;;11.20;4.20;;;;;;;;;;5036691;28;20454;-70
2023/04/20 03:32:44;;;;;;;6.90;3.70;;;;;;;;;;5039054;28;20484;-70
2023/04/20 03:35:12;;;;;;;7.90;3.40;;;;;;;;;;5036237;28;20553;-71
2023/04/20 03:37:41;;;;;;;7.77;3.63;;;;;;;;;;5036305;28;20490;-70
2023/04/20 03:40:12;;;;;;;7.97;4.50;;;;;;;;;;5036657;28;20465;-70
2023/04/20 03:42:41;;;;;;;11.30;4.47;;;;;;;;;;5035527;28;20482;-70
2023/04/20 03:45:09;;;;;;;8.13;4.00;;;;;;;;;;5036653;28;20450;-70
2023/04/20 03:47:38;;;;;;;8.73;4.03;;;;;;;;;;5036060;28;20448;-71
2023/04/20 03:50:09;;;;;;;9.07;3.90;;;;;;;;;;5036493;28;20447;-71
2023/04/20 03:52:37;;;;;;;6.10;3.43;;;;;;;;;;5036314;28;20454;-69
2023/04/20 03:55:06;;;;;;;7.00;4.37;;;;;;;;;;5035858;28;20446;-70
2023/04/20 03:57:34;;;;;;;7.37;3.97;;;;;;;;;;5035440;28;20458;-70
2023/04/20 04:00:04;;;;;;;14.50;3.83;;;;;;;;;;5037046;28;20750;-69
2023/04/20 04:02:33;;;;;;;7.97;4.30;;;;;;;;;;5057879;28;20575;-69
2023/04/20 04:05:01;;;;;;;12.50;5.20;;;;;;;;;;5055178;28;20461;-71
2023/04/20 04:07:31;;;;;;;7.77;3.93;;;;;;;;;;5054394;28;20458;-70
2023/04/20 04:10:03;;;;;;;6.37;3.97;;;;;;;;;;5055509;28;20473;-70
2023/04/20 04:12:36;;;;;;;10.20;4.30;;;;;;;;;;5041684;28;20881;-69
2023/04/20 04:15:05;;;;;;;9.43;4.13;;;;;;;;;;5053959;28;20516;-68
2023/04/20 04:17:40;;;;;;;11.13;5.37;;;;;;;;;;5053830;28;20919;-70
2023/04/20 04:20:13;;;;;;;7.57;4.70;;;;;;;;;;5049929;28;20839;-70
2023/04/20 04:22:45;;;;;;;9.87;4.20;;;;;;;;;;5037183;28;20475;-69
2023/04/20 04:25:17;;;;;;;9.30;3.90;;;;;;;;;;5034329;28;20497;-71
2023/04/20 04:27:46;;;;;;;10.43;4.53;;;;;;;;;;5032309;28;20451;-70
2023/04/20 04:30:18;;;;;;;10.40;4.20;;;;;;;;;;5053478;28;20876;-70
2023/04/20 04:32:47;;;;;;;7.10;4.37;;;;;;;;;;5047495;28;20458;-70
2023/04/20 04:38:14;;;;;;;8.40;3.97;;;;;;;;;;5039232;28;20447;-70
2023/04/20 04:40:46;;;;;;;8.97;4.50;;;;;;;;;;5038598;28;20734;-69
2023/04/20 04:43:15;;;;;;;11.13;5.57;;;;;;;;;;5038449;28;20557;-71
2023/04/20 04:45:44;;;;;;;10.73;4.63;;;;;;;;;;5039720;28;20467;-70
2023/04/20 04:48:14;;;;;;;9.97;4.27;;;;;;;;;;5039863;28;20463;-69
2023/04/20 04:50:43;;;;;;;7.40;4.33;;;;;;;;;;5040918;28;20473;-70
2023/04/20 04:53:13;;;;;;;12.30;5.13;;;;;;;;;;5038726;28;20486;-69
2023/04/20 04:55:51;;;;;;;7.33;4.13;;;;;;;;;;5043236;28;20501;-69
2023/04/20 04:58:20;;;;;;;8.87;4.17;;;;;;;;;;5050870;28;20617;-70
2023/04/20 05:00:49;;;;;;;7.93;4.27;;;;;;;;;;5038521;28;20757;-70
2023/04/20 05:03:17;;;;;;;9.33;4.07;;;;;;;;;;5039185;28;20950;-70
2023/04/20 05:05:46;;;;;;;12.37;4.40;;;;;;;;;;5038319;28;21018;-69
2023/04/20 05:08:16;;;;;;;6.17;4.60;;;;;;;;;;5043473;28;20564;-69
2023/04/20 05:10:45;;;;;;;7.30;4.40;;;;;;;;;;5056142;28;20457;-70
2023/04/20 05:13:18;;;;;;;7.17;4.87;;;;;;;;;;5041505;28;20447;-70
2023/04/20 05:15:47;;;;;;;10.10;4.67;;;;;;;;;;5035772;28;20680;-69
2023/04/20 05:18:15;;;;;;;8.37;4.53;;;;;;;;;;5035099;28;20859;-70
2023/04/20 05:20:44;;;;;;;15.83;6.03;;;;;;;;;;5034570;28;20451;-69
2023/04/20 05:23:13;;;;;;;8.70;4.77;;;;;;;;;;5038894;28;20564;-70
2023/04/20 05:25:43;;;;;;;11.10;6.10;;;;;;;;;;5035534;28;20532;-70
2023/04/20 05:28:15;;;;;;;9.17;4.87;;;;;;;;;;5035775;28;20469;-71
2023/04/20 05:30:46;;;;;;;8.93;5.57;;;;;;;;;;5035435;28;20487;-69
2023/04/20 05:33:15;;;;;;;7.20;4.30;;;;;;;;;;5032693;28;20470;-69
2023/04/20 05:35:50;;;;;;;7.20;4.90;;;;;;;;;;5030896;28;20641;-70
2023/04/20 05:38:21;;;;;;;11.43;5.60;;;;;;;;;;5029186;28;20458;-69
2023/04/20 05:40:51;;;;;;;10.07;4.43;;;;;;;;;;5029104;28;21074;-69
2023/04/20 05:43:20;;;;;;;9.17;5.40;;;;;;;;;;5034044;28;20483;-69
2023/04/20 05:45:50;;;;;;;10.37;5.60;;;;;;;;;;5031416;28;20447;-70
2023/04/20 05:48:19;;;;;;;9.97;5.50;;;;;;;;;;5030650;28;21174;-70
2023/04/20 05:50:47;;;;;;;16.03;6.90;;;;;;;;;;5028126;28;20812;-70
2023/04/20 05:53:16;;;;;;;8.37;5.60;;;;;;;;;;5028399;28;20459;-70
2023/04/20 05:55:45;;;;;;;9.90;4.23;;;;;;;;;;5050283;28;20460;-69
2023/04/20 05:58:15;;;;;;;11.60;5.20;;;;;;;;;;5046694;28;20461;-69
2023/04/20 06:00:49;;;;;;;10.03;4.80;;;;;;;;;;5044672;28;20470;-68
2023/04/20 06:03:18;;;;;;;9.30;5.63;;;;;;;;;;5047025;28;20485;-69
2023/04/20 06:05:47;;;;;;;13.10;5.30;;;;;;;;;;5047197;28;20994;-69
2023/04/20 06:08:16;;;;;;;10.67;5.03;;;;;;;;;;5049843;28;20825;-69
2023/04/20 06:10:44;;;;;;;10.27;5.80;;;;;;;;;;5048388;28;20746;-69
2023/04/20 06:13:24;;;;;;;11.57;5.00;;;;;;;;;;5050224;28;20532;-69
2023/04/20 06:15:58;;;;;;;10.87;4.60;;;;;;;;;;5049920;28;20457;-69
2023/04/20 06:18:32;;;;;;;9.60;6.00;;;;;;;;;;5029881;28;20842;-70
2023/04/20 06:21:00;;;;;;;11.53;5.80;;;;;;;;;;5050459;28;20447;-69
2023/04/20 06:23:29;;;;;;;10.33;5.67;;;;;;;;;;5052742;28;20600;-70
2023/04/20 06:25:57;;;;;;;10.63;5.03;;;;;;;;;;5052295;28;20518;-69
2023/04/20 06:28:28;;;;;;;8.27;5.40;;;;;;;;;;5054919;28;20589;-69
2023/04/20 06:31:06;;;;;;;11.80;5.57;;;;;;;;;;5054167;28;20535;-69
2023/04/20 06:33:35;;;;;;;11.00;5.40;;;;;;;;;;5036018;28;21120;-68
2023/04/20 06:36:03;;;;;;;12.00;5.43;;;;;;;;;;5031959;28;20754;-69
2023/04/20 06:38:32;;;;;;;8.70;5.20;;;;;;;;;;5033872;28;20520;-69
2023/04/20 06:41:01;;;;;;;12.63;6.00;;;;;;;;;;5032488;28;20533;-70
2023/04/20 06:43:36;;;;;;;9.70;5.00;;;;;;;;;;5034615;28;20478;-69
2023/04/20 06:46:12;;;;;;;12.10;7.20;;;;;;;;;;5034083;28;20465;-70
2023/04/20 06:48:41;;;;;;;11.80;5.77;;;;;;;;;;5032936;28;20443;-68
2023/04/20 06:51:23;;;;;;;9.40;5.53;;;;;;;;;;5031352;28;20463;-70
2023/04/20 06:53:59;;;;;;;12.07;5.87;;;;;;;;;;5041213;28;20450;-70
2023/04/20 06:56:35;;;;;;;12.33;5.87;;;;;;;;;;5050841;28;20556;-69
2023/04/20 06:59:18;;;;;;;12.83;6.23;;;;;;;;;;5050977;28;20438;-70
2023/04/20 07:01:47;;;;;;;10.80;5.40;;;;;;;;;;5047510;28;20758;-70
2023/04/20 07:04:25;;;;;;;10.30;5.90;;;;;;;;;;5033751;28;20489;-69
2023/04/20 07:07:03;;;;;;;9.03;5.90;;;;;;;;;;5033604;28;20458;-71
2023/04/20 07:09:55;;;;;;;12.53;5.00;;;;;;;;;;5044568;28;20774;-71
2023/04/20 07:12:27;;;;;;;8.80;6.17;;;;;;;;;;5040832;28;20462;-69
2023/04/20 07:20:52;;;;;;;10.43;6.40;;;;;;;;;;5118727;28;20515;-69
2023/04/20 07:23:29;;;;;;;7.30;4.70;;;;;;;;;;5112287;28;20439;-68
2023/04/20 07:25:59;;;;;;;6.53;5.57;;;;;;;;;;5111963;28;20995;-69
2023/04/20 07:28:36;;;;;;;8.63;6.70;;;;;;;;;;5111940;28;20496;-69
2023/04/20 07:31:13;;;;;;;9.20;6.00;;;;;;;;;;5105202;28;20460;-69
2023/04/20 07:37:02;;;;;;;8.90;6.13;;;;;;;;;;5087896;28;20609;-70
2023/04/20 07:39:30;;;;;;;10.40;5.60;;;;;;;;;;5092368;28;20436;-68
2023/04/20 07:42:09;;;;;;;13.67;7.37;;;;;;;;;;5090538;28;20448;-68
2023/04/20 07:44:38;;;;;;;10.10;6.07;;;;;;;;;;5090452;28;20499;-69
2023/04/20 07:47:11;;;;;;;22.60;17.70;;;;;;;;;;5098875;28;20451;-68
2023/04/20 07:49:53;;;;;;;8.93;5.90;;;;;;;;;;5111685;28;20503;-69
2023/04/20 07:52:32;;;;;;;8.73;6.10;;;;;;;;;;5110780;28;20466;-70
2023/04/20 07:55:10;;;;;;;10.03;6.23;;;;;;;;;;5094481;28;20440;-69
2023/04/20 07:57:41;;;;;;;12.17;6.80;;;;;;;;;;5109376;28;20577;-71
2023/04/20 08:00:16;;;;;;;11.40;7.50;;;;;;;;;;5111991;28;20440;-69
2023/04/20 08:02:47;;;;;;;8.27;5.90;;;;;;;;;;5112564;28;20455;-70
2023/04/20 08:05:23;;;;;;;11.77;6.70;;;;;;;;;;5112354;28;20448;-69
2023/04/20 08:07:52;;;;;;;12.77;6.60;;;;;;;;;;5112551;28;20531;-69
2023/04/20 08:10:27;;;;;;;10.33;7.13;;;;;;;;;;5111980;28;20534;-70
2023/04/20 08:12:58;;;;;;;9.70;6.20;;;;;;;;;;5094719;28;20508;-69
2023/04/20 08:15:28;;;;;;;9.57;7.07;;;;;;;;;;5110583;28;20572;-69
2023/04/20 08:18:02;;;;;;;14.27;6.17;;;;;;;;;;5105592;28;20519;-69
2023/04/20 08:20:38;;;;;;;9.50;5.87;;;;;;;;;;5102322;28;20478;-69
2023/04/20 08:23:35;;;;;;;14.57;7.20;;;;;;;;;;5110758;28;20512;-70
2023/04/20 08:26:17;;;;;;;11.60;5.90;;;;;;;;;;5111394;28;20802;-69
2023/04/20 08:28:46;;;;;;;8.67;6.87;;;;;;;;;;5099253;28;20452;-69
2023/04/20 08:31:16;;;;;;;10.43;5.67;;;;;;;;;;5097452;28;20456;-69
2023/04/20 08:33:50;;;;;;;13.77;7.50;;;;;;;;;;5097045;28;20803;-68
2023/04/20 08:36:32;;;;;;;8.97;6.97;;;;;;;;;;5079305;28;20484;-68
2023/04/20 08:39:23;;;;;;;7.90;6.67;;;;;;;;;;5083981;28;20513;-70
2023/04/20 08:41:56;;;;;;;12.53;6.80;;;;;;;;;;5097647;28;20463;-71
2023/04/20 08:44:32;;;;;;;7.43;6.63;;;;;;;;;;5097417;28;20444;-68
2023/04/20 08:47:23;;;;;;;11.47;7.67;;;;;;;;;;5095930;28;20462;-69
2023/04/20 08:49:55;;;;;;;15.87;7.60;;;;;;;;;;5096591;28;20712;-69
2023/04/20 08:52:34;;;;;;;10.97;7.50;;;;;;;;;;5096529;28;20455;-69
2023/04/20 08:55:06;;;;;;;10.33;7.63;;;;;;;;;;5095090;28;20481;-69
2023/04/20 08:57:35;;;;;;;10.17;7.40;;;;;;;;;;5089743;28;20536;-68
2023/04/20 09:00:09;;;;;;;10.13;7.90;;;;;;;;;;5081260;28;20445;-69
2023/04/20 09:05:47;;;;;;;13.33;7.43;;;;;;;;;;5081815;28;20455;-71
2023/04/20 09:08:19;;;;;;;10.43;7.30;;;;;;;;;;5075680;28;20453;-70
2023/04/20 09:11:06;;;;;;;10.40;7.60;;;;;;;;;;5083530;28;20689;-68
2023/04/20 09:13:35;;;;;;;8.90;7.47;;;;;;;;;;5079711;28;20429;-70
2023/04/20 09:16:14;;;;;;;7.80;7.00;;;;;;;;;;5074252;28;20876;-69
2023/04/20 09:18:55;;;;;;;9.83;7.30;;;;;;;;;;5079593;28;20447;-68
2023/04/20 09:21:37;;;;;;;11.53;8.00;;;;;;;;;;5094957;28;20588;-70
2023/04/20 09:24:09;;;;;;;14.60;7.70;;;;;;;;;;5095253;28;20453;-70
2023/04/20 09:26:38;;;;;;;12.00;8.43;;;;;;;;;;5094296;28;21133;-69
2023/04/20 09:29:19;;;;;;;11.47;6.97;;;;;;;;;;5095306;28;20451;-70
2023/04/20 09:31:56;;;;;;;10.03;6.47;;;;;;;;;;5081329;28;20955;-70
2023/04/20 09:34:27;;;;;;;10.17;7.40;;;;;;;;;;5075222;28;20457;-69
2023/04/20 09:40:08;;;;;;;10.27;7.90;;;;;;;;;;5061973;28;20429;-69
2023/04/20 09:42:40;;;;;;;8.90;6.23;;;;;;;;;;5093819;28;20480;-68
2023/04/20 09:45:12;;;;;;;9.50;6.33;;;;;;;;;;5092466;28;20440;-69
2023/04/20 09:47:53;;;;;;;10.80;7.50;;;;;;;;;;5093333;28;20440;-70
2023/04/20 09:56:15;;;;;;;10.97;6.73;;;;;;;;;;5071332;28;20435;-71
2023/04/20 10:01:36;;;;;;;8.87;6.33;;;;;;;;;;5091508;28;20436;-70
2023/04/20 10:07:17;;;;;;;7.80;5.47;;;;;;;;;;5089205;28;20469;-70
2023/04/20 10:10:03;;;;;;;8.20;5.93;;;;;;;;;;5091954;28;20454;-71
2023/04/20 10:12:48;;;;;;;8.70;5.90;;;;;;;;;;5093517;28;20455;-68
2023/04/20 10:15:26;;;;;;;10.30;6.83;;;;;;;;;;5091152;28;20488;-70
2023/04/20 10:18:04;;;;;;;10.93;7.30;;;;;;;;;;5089569;28;20491;-70
2023/04/20 10:20:34;;;;;;;7.90;6.40;;;;;;;;;;5091457;28;20463;-70
2023/04/20 10:23:10;;;;;;;11.10;6.20;;;;;;;;;;5092981;28;20474;-70
2023/04/20 10:25:44;;;;;;;8.80;5.33;;;;;;;;;;5082311;28;20472;-69
2023/04/20 10:28:24;;;;;;;10.97;9.00;;;;;;;;;;5072802;28;20856;-69
2023/04/20 10:31:15;;;;;;;7.30;5.13;;;;;;;;;;5072819;28;20453;-72
2023/04/20 10:33:54;;;;;;;10.47;6.27;;;;;;;;;;5086126;28;20751;-69
2023/04/20 10:36:26;;;;;;;11.37;5.90;;;;;;;;;;5090914;28;20528;-69
2023/04/20 10:38:55;;;;;;;8.40;6.20;;;;;;;;;;5079039;28;20464;-69
2023/04/20 10:41:23;;;;;;;5.40;4.50;;;;;;;;;;5092343;28;20444;-71
2023/04/20 10:44:00;;;;;;;6.03;5.00;;;;;;;;;;5094412;28;20555;-72
2023/04/20 10:46:32;;;;;;;7.20;4.50;;;;;;;;;;5086461;28;20488;-70
2023/04/20 10:49:17;;;;;;;8.30;5.10;;;;;;;;;;5071779;28;20540;-72
2023/04/20 10:54:43;;;;;;;9.13;6.00;;;;;;;;;;5089660;28;20531;-70
2023/04/20 10:57:17;;;;;;;7.03;4.90;;;;;;;;;;5085612;28;20485;-72
2023/04/20 11:00:01;;;;;;;9.53;5.93;;;;;;;;;;5087996;28;20451;-70
2023/04/20 11:03:07;;;;;;;6.97;4.70;;;;;;;;;;5091742;28;20476;-69
2023/04/20 11:05:41;;;;;;;5.83;4.47;;;;;;;;;;5110991;28;20590;-71
2023/04/20 11:08:11;;;;;;;6.63;5.20;;;;;;;;;;5098851;28;20455;-70
2023/04/20 11:10:48;;;;;;;6.53;5.07;;;;;;;;;;5084472;28;20871;-71
2023/04/20 11:13:29;;;;;;;8.27;5.90;;;;;;;;;;5087070;28;20520;-69
2023/04/20 11:16:14;;;;;;;7.87;5.10;;;;;;;;;;5083288;28;20462;-71
2023/04/20 11:18:55;;;;;;;8.70;5.30;;;;;;;;;;5078642;28;20488;-71
2023/04/20 11:21:25;;;;;;;7.50;4.90;;;;;;;;;;5075454;28;20437;-71
2023/04/20 11:23:55;;;;;;;6.70;5.10;;;;;;;;;;5071454;28;20456;-69
2023/04/20 11:26:35;;;;;;;8.50;5.40;;;;;;;;;;5072768;28;20437;-71
2023/04/20 11:29:05;;;;;;;6.30;5.23;;;;;;;;;;5077719;28;20448;-70
2023/04/20 11:31:42;;;;;;;6.77;5.20;;;;;;;;;;5073043;28;20725;-70
2023/04/20 11:37:16;;;;;;;10.00;5.50;;;;;;;;;;5069770;28;20500;-72
2023/04/20 11:40:13;;;;;;;5.90;5.30;;;;;;;;;;5072596;28;20448;-69
2023/04/20 11:42:52;;;;;;;11.13;5.70;;;;;;;;;;5093877;28;20460;-70
2023/04/20 11:45:22;;;;;;;8.40;5.60;;;;;;;;;;5091561;28;20459;-70
2023/04/20 11:47:58;;;;;;;9.60;6.93;;;;;;;;;;5091237;28;20521;-71
2023/04/20 11:50:34;;;;;;;8.90;6.00;;;;;;;;;;5055089;28;20552;-71
2023/04/20 11:53:04;;;;;;;8.53;5.73;;;;;;;;;;5072639;28;20913;-70
2023/04/20 11:55:33;;;;;;;7.00;5.50;;;;;;;;;;5072155;28;20449;-69
2023/04/20 11:58:03;;;;;;;7.87;5.53;;;;;;;;;;5071648;28;20557;-70
2023/04/20 12:00:32;;;;;;;8.47;5.60;;;;;;;;;;5070690;28;20433;-72
2023/04/20 12:03:07;;;;;;;5.90;3.80;;;;;;;;;;5077736;28;20497;-70
2023/04/20 12:05:50;;;;;;;5.97;5.10;;;;;;;;;;5075021;28;20452;-69
2023/04/20 12:08:25;;;;;;;11.80;5.33;;;;;;;;;;5087215;28;20472;-70
2023/04/20 12:10:59;;;;;;;17.40;11.37;;;;;;;;;;5096579;28;20906;-70
2023/04/20 12:13:28;;;;;;;10.30;7.10;;;;;;;;;;5082340;28;20457;-70
2023/04/20 12:15:59;;;;;;;6.50;4.87;;;;;;;;;;5076435;28;20518;-72
2023/04/20 12:19:00;;;;;;;9.47;6.10;;;;;;;;;;5085431;28;20479;-70
2023/04/20 12:24:15;;;;;;;9.40;4.83;;;;;;;;;;5093437;28;20466;-71
2023/04/20 12:26:45;;;;;;;8.43;4.80;;;;;;;;;;5091143;28;20542;-70
2023/04/20 12:29:19;;;;;;;6.30;5.30;;;;;;;;;;5091682;28;20440;-70
2023/04/20 12:31:48;;;;;;;9.20;5.60;;;;;;;;;;5093797;28;20444;-70
2023/04/20 12:34:22;;;;;;;10.07;6.23;;;;;;;;;;5095030;28;20957;-70
2023/04/20 12:36:50;;;;;;;6.90;5.10;;;;;;;;;;5095654;28;20452;-71
2023/04/20 12:39:19;;;;;;;12.40;7.27;;;;;;;;;;5092830;28;20442;-70
2023/04/20 12:41:48;;;;;;;7.67;5.63;;;;;;;;;;5094635;28;20532;-71
2023/04/20 12:44:25;;;;;;;8.27;6.50;;;;;;;;;;5084805;28;20475;-70
2023/04/20 12:46:54;;;;;;;9.43;6.63;;;;;;;;;;5090383;28;20546;-71
2023/04/20 12:49:35;;;;;;;10.40;6.87;;;;;;;;;;5088147;28;20464;-71
2023/04/20 12:52:21;;;;;;;10.47;6.90;;;;;;;;;;5078910;28;20552;-70
2023/04/20 12:54:50;;;;;;;36.80;26.10;;;;;;;;;;5071889;28;20449;-71
2023/04/20 12:57:20;;;;;;;14.10;10.83;;;;;;;;;;5073279;28;20512;-70
2023/04/20 12:59:53;;;;;;;10.60;7.50;;;;;;;;;;5071044;28;20906;-70
2023/04/20 13:02:23;;;;;;;8.80;6.87;;;;;;;;;;5071190;28;20441;-69
2023/04/20 13:05:06;;;;;;;11.97;7.37;;;;;;;;;;5078274;28;20496;-71
2023/04/20 13:07:44;;;;;;;11.70;8.07;;;;;;;;;;5093751;28;20532;-69
2023/04/20 13:10:12;;;;;;;9.90;6.77;;;;;;;;;;5094757;28;20487;-69
2023/04/20 13:12:41;;;;;;;16.13;8.90;;;;;;;;;;5094444;28;20522;-69
2023/04/20 13:15:12;;;;;;;14.03;8.80;;;;;;;;;;5093775;28;20531;-69
2023/04/20 13:17:45;;;;;;;16.40;7.90;;;;;;;;;;5072691;28;20565;-70
2023/04/20 13:20:22;;;;;;;13.70;9.93;;;;;;;;;;5074557;28;20461;-70
2023/04/20 13:22:51;;;;;;;10.57;8.33;;;;;;;;;;5073425;28;20476;-70
2023/04/20 13:28:08;;;;;;;9.43;7.60;;;;;;;;;;5068878;28;20549;-69
2023/04/20 13:30:39;;;;;;;10.67;7.57;;;;;;;;;;5069595;28;20514;-70
2023/04/20 13:33:12;;;;;;;12.70;7.20;;;;;;;;;;5070206;28;20464;-71
2023/04/20 13:35:43;;;;;;;9.53;7.10;;;;;;;;;;5073941;28;21462;-70
2023/04/20 13:38:35;;;;;;;11.00;6.50;;;;;;;;;;5091992;28;20501;-70
2023/04/20 13:41:07;;;;;;;8.60;6.20;;;;;;;;;;5071195;28;20460;-72
2023/04/20 13:43:36;;;;;;;8.53;7.60;;;;;;;;;;5075826;28;20491;-70
2023/04/20 13:46:08;;;;;;;9.23;6.70;;;;;;;;;;5091628;28;20455;-69
2023/04/20 13:48:37;;;;;;;9.77;5.70;;;;;;;;;;5090138;28;20461;-70
2023/04/20 13:51:25;;;;;;;11.40;6.03;;;;;;;;;;5075393;28;20564;-71
2023/04/20 13:53:55;;;;;;;12.10;7.50;;;;;;;;;;5073573;28;20464;-69
2023/04/20 13:59:15;;;;;;;13.50;10.40;;;;;;;;;;5082775;28;20472;-70
2023/04/20 14:01:49;;;;;;;10.00;5.80;;;;;;;;;;5085758;28;20461;-69
2023/04/20 14:04:38;;;;;;;10.60;7.43;;;;;;;;;;5080136;28;20517;-68
2023/04/20 14:07:08;;;;;;;9.90;6.53;;;;;;;;;;5087981;28;20448;-69
2023/04/20 14:09:45;;;;;;;9.90;6.00;;;;;;;;;;5087786;28;20506;-71
2023/04/20 14:12:22;;;;;;;9.33;6.93;;;;;;;;;;5083428;28;20757;-69
2023/04/20 14:15:00;;;;;;;9.80;6.43;;;;;;;;;;5069104;28;20457;-69
2023/04/20 14:17:35;;;;;;;11.20;6.20;;;;;;;;;;5071895;28;20719;-71
2023/04/20 14:20:04;;;;;;;7.60;5.70;;;;;;;;;;5084252;28;20482;-71
2023/04/20 14:22:39;;;;;;;10.90;6.30;;;;;;;;;;5089460;28;20452;-69
2023/04/20 14:25:11;;;;;;;9.30;6.97;;;;;;;;;;5089973;28;20868;-69
2023/04/20 14:27:44;;;;;;;8.90;6.93;;;;;;;;;;5089716;28;20708;-71
2023/04/20 14:30:15;;;;;;;8.50;6.80;;;;;;;;;;5088774;28;20492;-69
2023/04/20 14:32:59;;;;;;;9.57;7.10;;;;;;;;;;5090261;28;20549;-69
2023/04/20 14:35:29;;;;;;;8.50;6.23;;;;;;;;;;5092283;28;20460;-70
2023/04/20 14:38:02;;;;;;;8.03;6.80;;;;;;;;;;5088673;28;20476;-71
2023/04/20 14:40:31;;;;;;;9.83;7.67;;;;;;;;;;5091161;28;20459;-70
2023/04/20 14:43:00;;;;;;;7.70;6.80;;;;;;;;;;5081808;28;20480;-70
2023/04/20 14:45:43;;;;;;;11.77;6.30;;;;;;;;;;5089614;28;20895;-70
2023/04/20 14:48:17;;;;;;;10.83;7.03;;;;;;;;;;5074655;28;20448;-69
2023/04/20 14:50:47;;;;;;;10.93;8.07;;;;;;;;;;5069614;28;20448;-69
2023/04/20 14:53:23;;;;;;;11.73;7.23;;;;;;;;;;5069813;28;20549;-69
2023/04/20 14:55:58;;;;;;;9.37;7.67;;;;;;;;;;5071060;28;20463;-71
2023/04/20 14:58:32;;;;;;;21.23;14.93;;;;;;;;;;5070616;28;20483;-72
2023/04/20 15:01:18;;;;;;;17.93;11.60;;;;;;;;;;5084672;28;20474;-70
2023/04/20 15:06:50;;;;;;;11.27;9.27;;;;;;;;;;5071445;28;20456;-71
2023/04/20 15:09:24;;;;;;;12.17;9.20;;;;;;;;;;5071078;28;20444;-70
2023/04/20 15:12:08;;;;;;;11.33;8.00;;;;;;;;;;5069818;28;20808;-71
2023/04/20 15:14:56;;;;;;;11.97;8.70;;;;;;;;;;5071493;28;20452;-71
2023/04/20 15:17:31;;;;;;;10.90;8.23;;;;;;;;;;5066028;28;20492;-70
2023/04/20 15:22:54;;;;;;;10.13;8.07;;;;;;;;;;5087009;28;20453;-71
2023/04/20 15:25:25;;;;;;;11.23;9.67;;;;;;;;;;5079471;28;20453;-70
2023/04/20 15:27:58;;;;;;;12.73;9.27;;;;;;;;;;5080027;28;20613;-70
2023/04/20 15:30:36;;;;;;;13.00;9.80;;;;;;;;;;5090499;28;20541;-71
2023/04/20 15:33:06;;;;;;;14.57;9.70;;;;;;;;;;5078379;28;20452;-71
2023/04/20 15:35:54;;;;;;;13.83;9.47;;;;;;;;;;5103588;28;20476;-71
2023/04/20 15:38:35;;;;;;;13.20;10.27;;;;;;;;;;5090600;28;20488;-71
2023/04/20 15:41:29;;;;;;;13.33;9.40;;;;;;;;;;5094993;28;20558;-70
2023/04/20 15:44:12;;;;;;;12.60;9.80;;;;;;;;;;5095438;28;20447;-70
2023/04/20 15:49:41;;;;;;;14.33;9.73;;;;;;;;;;5088808;28;20522;-70
2023/04/20 15:52:15;;;;;;;17.13;12.10;;;;;;;;;;5083461;28;20539;-71
2023/04/20 15:54:50;;;;;;;14.30;9.03;;;;;;;;;;5074481;28;20505;-71
2023/04/20 15:57:26;;;;;;;15.50;10.93;;;;;;;;;;5080276;28;20473;-71
2023/04/20 16:00:09;;;;;;;19.23;11.10;;;;;;;;;;5073903;28;20503;-71
2023/04/20 16:02:49;;;;;;;16.07;12.20;;;;;;;;;;5076975;28;20554;-72
2023/04/20 16:05:26;;;;;;;14.27;10.63;;;;;;;;;;5094917;28;20467;-72